createdAt,value
2023-05-17T00:01:27.937Z,2.72
2023-05-17T00:04:02.824Z,2.88
2023-05-17T00:06:35.765Z,2.85
2023-05-17T00:11:41.654Z,2.55
2023-05-17T00:17:22.997Z,3.13
2023-05-17T00:19:55.951Z,2.22
2023-05-17T00:22:29.243Z,3.22
2023-05-17T00:25:02.020Z,2.55
2023-05-17T00:30:09.096Z,2.83
2023-05-17T00:32:45.727Z,2.63
2023-05-17T00:35:18.702Z,2.67
2023-05-17T00:40:24.265Z,2.33
2023-05-17T00:45:30.325Z,3.30
2023-05-17T00:48:04.963Z,2.13
2023-05-17T00:50:38.078Z,2.28
2023-05-17T00:53:11.341Z,2.33
2023-05-17T00:55:44.976Z,2.80
2023-05-17T00:58:18.208Z,3.13
2023-05-17T01:00:52.320Z,2.72
2023-05-17T01:05:59.389Z,2.53
2023-05-17T01:08:34.526Z,3.10
2023-05-17T01:11:15.204Z,2.92
2023-05-17T01:13:56.666Z,2.42
2023-05-17T01:16:34.461Z,3.03
2023-05-17T01:19:34.767Z,2.58
2023-05-17T01:22:16.965Z,2.63
2023-05-17T01:25:01.936Z,2.28
2023-05-17T01:27:40.930Z,3.15
2023-05-17T01:30:18.128Z,2.97
2023-05-17T01:32:51.939Z,2.90
2023-05-17T01:35:24.904Z,2.28
2023-05-17T01:40:55.619Z,2.88
2023-05-17T01:43:36.553Z,2.80
2023-05-17T01:46:16.221Z,2.55
2023-05-17T01:48:56.236Z,2.70
2023-05-17T01:51:34.393Z,2.55
2023-05-17T01:54:12.180Z,2.78
2023-05-17T01:56:54.301Z,2.75
2023-05-17T01:59:28.739Z,3.50
2023-05-17T02:02:06.311Z,3.42
2023-05-17T02:04:39.140Z,2.22
2023-05-17T02:07:11.952Z,2.83
2023-05-17T02:09:47.443Z,2.72
2023-05-17T02:12:21.670Z,2.90
2023-05-17T02:14:54.691Z,3.03
2023-05-17T02:20:00.262Z,2.80
2023-05-17T02:22:33.644Z,2.95
2023-05-17T02:25:07.528Z,3.00
2023-05-17T02:27:41.720Z,2.55
2023-05-17T02:30:19.188Z,3.15
2023-05-17T02:32:59.377Z,2.92
2023-05-17T02:35:32.241Z,3.38
2023-05-17T02:38:05.257Z,3.60
2023-05-17T02:43:12.134Z,3.45
2023-05-17T02:45:45.124Z,3.47
2023-05-17T02:48:19.393Z,3.30
2023-05-17T02:50:52.705Z,3.53
2023-05-17T02:53:25.528Z,3.05
2023-05-17T02:55:58.691Z,3.15
2023-05-17T02:58:32.903Z,3.20
2023-05-17T03:01:05.950Z,3.08
2023-05-17T03:06:12.533Z,3.97
2023-05-17T03:11:18.713Z,2.97
2023-05-17T03:13:53.232Z,2.60
2023-05-17T03:16:30.651Z,2.65
2023-05-17T03:19:06.778Z,2.58
2023-05-17T03:21:40.350Z,3.47
2023-05-17T03:29:21.433Z,3.25
2023-05-17T03:31:54.712Z,2.88
2023-05-17T03:34:28.361Z,2.80
2023-05-17T03:37:02.210Z,3.08
2023-05-17T03:39:35.517Z,3.20
2023-05-17T03:44:42.879Z,3.72
2023-05-17T03:47:16.806Z,2.63
2023-05-17T03:49:50.385Z,3.10
2023-05-17T03:52:23.786Z,3.10
2023-05-17T03:57:30.047Z,2.85
2023-05-17T04:02:47.473Z,3.08
2023-05-17T04:05:21.031Z,3.22
2023-05-17T04:07:55.983Z,2.50
2023-05-17T04:10:29.020Z,2.58
2023-05-17T04:15:36.202Z,2.97
2023-05-17T04:18:10.381Z,2.70
2023-05-17T04:23:16.280Z,2.83
2023-05-17T04:28:23.162Z,2.95
2023-05-17T04:30:58.251Z,2.45
2023-05-17T04:33:31.204Z,2.40
2023-05-17T04:36:05.696Z,2.85
2023-05-17T04:38:39.012Z,2.55
2023-05-17T04:41:16.176Z,3.40
2023-05-17T04:43:49.431Z,2.40
2023-05-17T04:46:29.621Z,3.28
2023-05-17T04:49:03.472Z,2.47
2023-05-17T04:51:37.364Z,2.63
2023-05-17T04:56:43.103Z,2.33
2023-05-17T04:59:21.270Z,2.60
2023-05-17T05:01:56.432Z,3.45
2023-05-17T05:04:29.241Z,3.60
2023-05-17T05:09:35.243Z,2.85
2023-05-17T05:12:09.627Z,3.20
2023-05-17T05:14:43.284Z,3.33
2023-05-17T05:17:17.405Z,2.60
2023-05-17T05:19:52.077Z,3.10
2023-05-17T05:22:25.803Z,2.80
2023-05-17T05:24:58.832Z,3.17
2023-05-17T05:30:05.345Z,2.70
2023-05-17T05:32:40.938Z,2.72
2023-05-17T05:38:11.255Z,3.00
2023-05-17T05:40:44.374Z,3.40
2023-05-17T05:45:51.045Z,2.42
2023-05-17T05:48:26.166Z,3.55
2023-05-17T05:50:59.241Z,2.88
2023-05-17T05:56:05.508Z,3.65
2023-05-17T05:58:38.398Z,2.17
2023-05-17T06:01:12.678Z,2.85
2023-05-17T06:06:19.890Z,2.78
2023-05-17T06:08:52.807Z,1.92
2023-05-17T06:11:27.155Z,3.03
2023-05-17T06:20:03.519Z,2.55
2023-05-17T06:22:36.383Z,2.30
2023-05-17T06:27:43.958Z,2.33
2023-05-17T06:32:50.024Z,2.63
2023-05-17T06:38:29.500Z,2.78
2023-05-17T06:41:02.660Z,3.08
2023-05-17T06:43:37.508Z,2.90
2023-05-17T06:46:10.726Z,2.72
2023-05-17T06:51:18.120Z,2.67
2023-05-17T06:53:51.488Z,3.15
2023-05-17T06:56:24.380Z,2.38
2023-05-17T07:01:30.423Z,2.20
2023-05-17T07:04:03.497Z,3.17
2023-05-17T07:09:11.741Z,2.75
2023-05-17T07:11:44.564Z,3.33
2023-05-17T07:14:17.656Z,3.17
2023-05-17T07:16:50.696Z,2.88
2023-05-17T07:19:23.996Z,2.35
2023-05-17T07:21:58.370Z,2.83
2023-05-17T07:24:32.208Z,2.72
2023-05-17T07:27:05.534Z,3.33
2023-05-17T07:29:38.419Z,2.65
2023-05-17T07:32:11.197Z,2.38
2023-05-17T07:34:44.046Z,2.30
2023-05-17T07:37:18.249Z,2.92
2023-05-17T07:39:51.118Z,2.90
2023-05-17T07:42:24.174Z,2.95
2023-05-17T07:47:31.946Z,1.90
2023-05-17T07:50:05.455Z,2.88
2023-05-17T07:52:39.728Z,2.10
2023-05-17T07:55:13.740Z,2.70
2023-05-17T07:57:48.370Z,2.50
2023-05-17T08:00:22.703Z,2.63
2023-05-17T08:02:55.684Z,2.00
2023-05-17T08:08:03.245Z,2.42
2023-05-17T08:10:37.812Z,2.63
2023-05-17T08:13:10.808Z,3.13
2023-05-17T08:18:16.994Z,2.13
2023-05-17T08:20:50.696Z,2.15
2023-05-17T08:23:25.060Z,2.03
2023-05-17T08:25:57.966Z,2.55
2023-05-17T08:31:04.309Z,1.98
2023-05-17T08:33:37.374Z,1.90
2023-05-17T08:36:10.317Z,2.47
2023-05-17T08:38:44.854Z,1.95
2023-05-17T08:41:17.701Z,2.03
2023-05-17T08:43:51.031Z,2.40
2023-05-17T08:46:25.091Z,1.90
2023-05-17T08:49:00.570Z,1.70
2023-05-17T08:51:33.822Z,1.80
2023-05-17T08:54:08.492Z,1.85
2023-05-17T08:56:43.723Z,1.98
2023-05-17T08:59:16.599Z,2.13
2023-05-17T09:06:56.754Z,1.83
2023-05-17T09:09:31.185Z,1.80
2023-05-17T09:12:04.413Z,1.83
2023-05-17T09:14:37.356Z,2.72
2023-05-17T09:19:46.588Z,1.90
2023-05-17T09:22:20.606Z,1.55
2023-05-17T09:24:54.922Z,1.60
2023-05-17T09:27:27.732Z,1.42
2023-05-17T09:30:00.727Z,1.20
2023-05-17T09:35:08.620Z,1.52
2023-05-17T09:37:45.245Z,1.38
2023-05-17T09:40:26.341Z,1.17
2023-05-17T09:43:00.113Z,1.88
2023-05-17T09:45:33.190Z,1.80
2023-05-17T09:48:13.897Z,1.88
2023-05-17T09:50:48.703Z,2.42
2023-05-17T09:53:27.023Z,2.25
2023-05-17T09:56:03.366Z,1.45
2023-05-17T09:58:38.461Z,1.25
2023-05-17T10:01:12.225Z,1.52
2023-05-17T10:03:45.739Z,1.60
2023-05-17T10:08:57.959Z,1.60
2023-05-17T10:11:34.426Z,1.20
2023-05-17T10:14:12.483Z,1.35
2023-05-17T10:16:46.035Z,1.10
2023-05-17T10:19:21.050Z,1.48
2023-05-17T10:22:00.215Z,1.70
2023-05-17T10:24:41.681Z,1.13
2023-05-17T10:27:17.148Z,1.58
2023-05-17T10:29:51.235Z,1.25
2023-05-17T10:32:27.228Z,1.80
2023-05-17T10:35:11.247Z,1.67
2023-05-17T10:37:44.501Z,1.70
2023-05-17T10:42:56.627Z,1.70
2023-05-17T10:45:29.998Z,1.55
2023-05-17T10:48:06.845Z,1.50
2023-05-17T10:50:47.445Z,1.23
2023-05-17T10:53:27.164Z,1.23
2023-05-17T10:58:34.533Z,1.25
2023-05-17T11:01:08.560Z,0.95
2023-05-17T11:03:44.341Z,1.40
2023-05-17T11:06:24.036Z,1.73
2023-05-17T11:09:08.825Z,1.20
2023-05-17T11:12:04.698Z,1.25
2023-05-17T11:14:58.032Z,1.20
2023-05-17T11:20:28.247Z,1.55
2023-05-17T11:23:04.764Z,1.25
2023-05-17T11:25:40.571Z,1.73
2023-05-17T11:28:20.069Z,1.35
2023-05-17T11:31:01.776Z,1.60
2023-05-17T11:33:44.117Z,2.08
2023-05-17T11:36:21.555Z,1.80
2023-05-17T11:39:12.893Z,2.33
2023-05-17T11:41:50.511Z,1.33
2023-05-17T11:44:26.911Z,1.27
2023-05-17T11:47:06.016Z,2.92
2023-05-17T11:49:40.575Z,1.40
2023-05-17T11:52:13.519Z,2.10
2023-05-17T11:54:46.706Z,2.85
2023-05-17T11:57:21.561Z,1.30
2023-05-17T11:59:59.992Z,1.75
2023-05-17T12:02:34.244Z,1.50
2023-05-17T12:05:09.447Z,1.58
2023-05-17T12:07:42.418Z,1.50
2023-05-17T12:10:15.502Z,1.35
2023-05-17T12:12:48.598Z,2.03
2023-05-17T12:15:21.373Z,1.42
2023-05-17T12:20:33.021Z,1.90
2023-05-17T12:23:06.274Z,2.03
2023-05-17T12:25:39.257Z,1.38
2023-05-17T12:28:18.330Z,1.52
2023-05-17T12:30:54.102Z,1.70
2023-05-17T12:33:28.985Z,1.77
2023-05-17T12:36:03.530Z,1.45
2023-05-17T12:38:38.252Z,1.63
2023-05-17T12:41:13.182Z,1.80
2023-05-17T12:43:47.201Z,1.95
2023-05-17T12:46:23.130Z,2.55
2023-05-17T12:49:06.116Z,1.33
2023-05-17T12:51:45.534Z,1.33
2023-05-17T12:54:27.564Z,2.33
2023-05-17T12:57:12.305Z,1.60
2023-05-17T12:59:49.764Z,1.65
2023-05-17T13:02:23.878Z,1.92
2023-05-17T13:04:58.593Z,1.50
2023-05-17T13:07:31.433Z,1.65
2023-05-17T13:12:39.210Z,1.83
2023-05-17T13:15:12.459Z,1.10
2023-05-17T13:17:50.036Z,1.30
2023-05-17T13:20:28.081Z,1.23
2023-05-17T13:23:01.126Z,1.60
2023-05-17T13:28:06.762Z,2.10
2023-05-17T13:30:40.309Z,2.00
2023-05-17T13:33:13.235Z,1.85
2023-05-17T13:35:47.630Z,1.80
2023-05-17T13:38:25.026Z,1.55
2023-05-17T13:40:57.894Z,1.95
2023-05-17T13:43:30.823Z,1.52
2023-05-17T13:46:04.686Z,1.83
2023-05-17T13:48:39.185Z,1.60
2023-05-17T13:51:15.522Z,1.95
2023-05-17T13:53:48.386Z,1.48
2023-05-17T13:58:55.218Z,2.05
2023-05-17T14:04:00.876Z,1.60
2023-05-17T14:06:35.435Z,1.75
2023-05-17T14:09:08.263Z,2.05
2023-05-17T14:14:13.934Z,1.92
2023-05-17T14:16:46.681Z,1.60
2023-05-17T14:21:53.608Z,1.80
2023-05-17T14:24:26.314Z,1.60
2023-05-17T14:29:32.225Z,1.63
2023-05-17T14:32:05.663Z,1.70
2023-05-17T14:34:38.701Z,1.58
2023-05-17T14:37:14.050Z,2.38
2023-05-17T14:39:55.202Z,2.35
2023-05-17T14:42:38.422Z,1.83
2023-05-17T14:47:44.015Z,2.22
2023-05-17T14:50:17.008Z,1.67
2023-05-17T14:52:51.417Z,1.63
2023-05-17T14:55:26.391Z,1.77
2023-05-17T14:57:59.307Z,1.65
2023-05-17T15:00:32.234Z,1.65
2023-05-17T15:03:05.467Z,2.47
2023-05-17T15:05:38.789Z,2.05
2023-05-17T15:08:14.298Z,1.77
2023-05-17T15:10:47.283Z,1.67
2023-05-17T15:13:20.128Z,1.83
2023-05-17T15:20:59.481Z,1.77
2023-05-17T15:23:33.861Z,1.70
2023-05-17T15:26:06.902Z,1.95
2023-05-17T15:28:39.806Z,1.85
2023-05-17T15:33:45.589Z,2.03
2023-05-17T15:36:18.626Z,2.08
2023-05-17T15:38:52.934Z,2.10
2023-05-17T15:41:29.893Z,2.00
2023-05-17T15:44:05.416Z,2.25
2023-05-17T15:46:38.409Z,2.10
2023-05-17T15:49:11.611Z,1.80
2023-05-17T15:51:44.391Z,2.13
2023-05-17T15:56:51.283Z,2.60
2023-05-17T15:59:24.165Z,2.03
2023-05-17T16:04:30.708Z,2.20
2023-05-17T16:07:03.634Z,2.00
2023-05-17T16:12:10.622Z,2.15
2023-05-17T16:14:44.851Z,2.00
2023-05-17T16:17:17.575Z,1.92
2023-05-17T16:19:50.367Z,2.65
2023-05-17T16:24:57.173Z,2.33
2023-05-17T16:27:30.023Z,2.38
2023-05-17T16:30:03.591Z,1.92
2023-05-17T16:32:36.664Z,2.38
2023-05-17T16:35:10.118Z,2.13
2023-05-17T16:37:43.448Z,2.25
2023-05-17T16:40:17.735Z,2.20
2023-05-17T16:42:50.587Z,2.00
2023-05-17T16:45:23.543Z,1.90
2023-05-17T16:50:29.296Z,2.25
2023-05-17T16:53:02.306Z,3.17
2023-05-17T16:58:10.354Z,2.50
2023-05-17T17:03:18.781Z,2.88
2023-05-17T17:08:24.441Z,2.67
2023-05-17T17:13:31.495Z,2.17
2023-05-17T17:16:04.728Z,1.60
2023-05-17T17:18:39.628Z,3.17
2023-05-17T17:21:12.542Z,2.58
2023-05-17T17:23:46.121Z,2.10
2023-05-17T17:26:21.093Z,2.35
2023-05-17T17:28:53.938Z,1.95
2023-05-17T17:31:26.760Z,1.80
2023-05-17T17:36:32.827Z,1.70
2023-05-17T17:39:05.608Z,2.22
2023-05-17T17:41:39.730Z,1.90
2023-05-17T17:44:12.774Z,1.88
2023-05-17T17:46:46.421Z,2.20
2023-05-17T17:49:20.667Z,3.05
2023-05-17T17:51:53.919Z,2.65
2023-05-17T17:54:26.765Z,2.13
2023-05-17T17:59:36.037Z,2.13
2023-05-17T18:02:08.967Z,2.33
2023-05-17T18:07:16.929Z,3.15
2023-05-17T18:09:50.879Z,1.90
2023-05-17T18:12:27.164Z,2.22
2023-05-17T18:15:00.010Z,1.75
2023-05-17T18:17:33.014Z,2.10
2023-05-17T18:20:12.816Z,1.90
2023-05-17T18:22:45.780Z,2.67
2023-05-17T18:27:53.287Z,2.30
2023-05-17T18:30:28.385Z,2.20
2023-05-17T18:33:02.466Z,1.80
2023-05-17T18:35:35.820Z,2.38
2023-05-17T18:38:08.895Z,2.03
2023-05-17T18:40:43.892Z,1.73
2023-05-17T18:43:18.126Z,2.65
2023-05-17T18:45:51.802Z,2.17
2023-05-17T18:48:25.284Z,2.22
2023-05-17T18:50:59.921Z,1.85
2023-05-17T18:53:32.766Z,2.70
2023-05-17T19:01:14.132Z,1.83
2023-05-17T19:03:48.158Z,2.15
2023-05-17T19:06:21.302Z,2.20
2023-05-17T19:14:04.826Z,2.15
2023-05-17T19:16:37.636Z,1.92
2023-05-17T19:19:10.409Z,2.15
2023-05-17T19:24:16.165Z,2.72
2023-05-17T19:29:23.475Z,1.90
2023-05-17T19:31:56.439Z,1.65
2023-05-17T19:34:29.935Z,2.28
2023-05-17T19:37:02.960Z,1.98
2023-05-17T19:39:36.439Z,2.63
2023-05-17T19:42:09.723Z,1.80
2023-05-17T19:47:17.955Z,2.35
2023-05-17T19:49:50.854Z,2.00
2023-05-17T19:52:23.648Z,1.77
2023-05-17T19:54:56.539Z,1.90
2023-05-17T20:00:04.990Z,2.60
2023-05-17T20:02:37.851Z,2.17
2023-05-17T20:07:43.718Z,2.17
2023-05-17T20:12:52.075Z,1.70
2023-05-17T20:15:26.734Z,1.92
2023-05-17T20:17:59.698Z,2.08
2023-05-17T20:23:07.458Z,1.42
2023-05-17T20:25:41.811Z,2.53
2023-05-17T20:28:17.449Z,2.25
2023-05-17T20:30:51.721Z,1.40
2023-05-17T20:33:26.654Z,1.85
2023-05-17T20:35:59.965Z,1.80
2023-05-17T20:38:32.978Z,2.05
2023-05-17T20:43:40.564Z,1.95
2023-05-17T20:46:15.406Z,1.92
2023-05-17T20:48:49.724Z,1.95
2023-05-17T20:51:23.532Z,1.80
2023-05-17T20:53:58.061Z,2.35
2023-05-17T20:56:31.151Z,1.55
2023-05-17T20:59:04.221Z,1.90
2023-05-17T21:01:38.648Z,1.70
2023-05-17T21:04:46.274Z,1.65
2023-05-17T21:07:19.944Z,1.83
2023-05-17T21:09:52.766Z,1.70
2023-05-17T21:15:15.063Z,1.30
2023-05-17T21:17:51.067Z,1.70
2023-05-17T21:20:24.915Z,1.88
2023-05-17T21:22:57.975Z,1.58
2023-05-17T21:25:31.170Z,1.52
2023-05-17T21:28:04.266Z,1.48
2023-05-17T21:33:11.352Z,1.83
2023-05-17T21:35:45.803Z,1.70
2023-05-17T21:38:18.796Z,1.70
2023-05-17T21:40:51.621Z,1.80
2023-05-17T21:43:24.508Z,1.50
2023-05-17T21:45:58.702Z,1.60
2023-05-17T21:48:33.165Z,1.60
2023-05-17T21:51:06.147Z,1.33
2023-05-17T21:56:12.118Z,1.90
2023-05-17T21:58:44.967Z,1.70
2023-05-17T22:01:20.126Z,1.75
2023-05-17T22:03:55.336Z,1.73
2023-05-17T22:06:28.556Z,1.65
2023-05-17T22:09:01.520Z,1.73
2023-05-17T22:11:38.187Z,1.40
2023-05-17T22:14:11.657Z,1.63
2023-05-17T22:16:45.750Z,2.13
2023-05-17T22:19:24.690Z,1.60
2023-05-17T22:21:57.849Z,1.73
2023-05-17T22:24:31.021Z,1.80
2023-05-17T22:27:04.296Z,1.60
2023-05-17T22:29:38.489Z,1.75
2023-05-17T22:32:11.561Z,1.70
2023-05-17T22:35:00.996Z,1.27
2023-05-17T22:37:34.568Z,1.33
2023-05-17T22:40:11.976Z,1.85
2023-05-17T22:42:44.874Z,1.35
2023-05-17T22:45:18.270Z,1.38
2023-05-17T22:47:51.067Z,1.55
2023-05-17T22:50:30.598Z,1.67
2023-05-17T22:53:03.758Z,1.50
2023-05-17T22:55:36.549Z,1.27
2023-05-17T22:58:09.884Z,1.45
2023-05-17T23:00:42.820Z,1.35
2023-05-17T23:05:51.490Z,1.52
2023-05-17T23:08:27.199Z,1.58
2023-05-17T23:11:01.741Z,1.67
2023-05-17T23:13:36.373Z,1.20
2023-05-17T23:16:09.772Z,1.80
2023-05-17T23:18:42.752Z,1.48
2023-05-17T23:21:17.056Z,1.10
2023-05-17T23:23:49.976Z,1.63
2023-05-17T23:26:22.699Z,1.50
2023-05-17T23:28:55.519Z,1.55
2023-05-17T23:31:30.008Z,1.50
2023-05-17T23:34:03.155Z,1.80
2023-05-17T23:39:10.708Z,2.10
2023-05-17T23:41:43.758Z,1.60
2023-05-17T23:53:13.150Z,1.15
2023-05-17T23:55:48.032Z,1.70
2023-05-17T23:58:20.882Z,1.92
